Terminal Aerodrome Forecast
Issued by NWS Rapid City, SD

Home | Current Version | Previous Version | Graphics & Text | Print | Product List | Glossary On
Versions: 1 2 3 4 5 6 7 8 9 10 11 12 13 14
000
FTUS43 KUNR 211700
TAFRAP
TAF
KRAP 211724Z 2118/2218 VRB06KT P6SM BKN100
     FM212100 33011KT P6SM BKN080
     FM220200 32020G30KT P6SM BKN050
     FM221000 32027G37KT P6SM BKN030=

USA.gov is the U.S. government's official web portal to all federal, state and local government web resources and services.